Konotop, Ukraine
Current Conditions -  °F | °C
As of 7:00 AM on Sunday 26 Oct 2014 (Local Time) from UKBB Reporting Station
Clear Clear  
Wind Chill:   Ceiling: Unl
Heat Index: 18°   Visibility: 6mi
Dew Point: 14°   Wind: 7mph
Humidity: 86%   Direction: 120°ESE
Pressure: 30.59"   Gusts: NA
Location:  51.24°N, 33.21°E
Report Text: UKBB 260400Z 12003MPS CAVOK M08/M10 Q1036 88CLRD95 NOSIG
Loading
Personal Weather Stations






























Interactive Weather Map
Tropical Storm Tracking
New forecast layout! Learn more

10-Day Weather Forecast

Advertisements
Track Severe Weather on mobile